Time;durP1;ratioP1;P1;durP2;ratioP2;P2;SDS_P1;SDS_P2;PMS_P1;PMS_P2;Temp;Humidity;BMP_temperature;BMP_pressure;BME280_temperature;BME280_humidity;BME280_pressure;Samples;Min_cycle;Max_cycle;Signal;HPM_P1;HPM_P2
2022/07/12 00:01:46;;;;;;;1.63;1.52;;;15.30;99.90;;;;;;5033274;28;20492;-81
2022/07/12 00:04:12;;;;;;;2.08;1.67;;;15.20;99.90;;;;;;5032744;28;20547;-79
2022/07/12 00:06:38;;;;;;;2.35;1.70;;;15.20;99.90;;;;;;5032934;28;20037;-79
2022/07/12 00:09:05;;;;;;;1.77;1.67;;;15.10;99.90;;;;;;5032530;28;20017;-79
2022/07/12 00:11:30;;;;;;;1.75;1.50;;;15.10;99.90;;;;;;5034245;28;20493;-79
2022/07/12 00:13:56;;;;;;;1.60;1.50;;;15.10;99.90;;;;;;5031274;23;20088;-77
2022/07/12 00:16:22;;;;;;;1.42;1.20;;;15.10;99.90;;;;;;5011699;28;20101;-77
2022/07/12 00:18:48;;;;;;;1.40;1.30;;;15.20;99.90;;;;;;5011008;28;20111;-76
2022/07/12 00:21:14;;;;;;;1.52;1.40;;;15.20;99.90;;;;;;5012230;28;20053;-76
2022/07/12 00:23:40;;;;;;;1.58;1.20;;;15.20;99.90;;;;;;5012024;28;20057;-77
2022/07/12 00:26:06;;;;;;;1.95;1.63;;;15.20;99.90;;;;;;5012212;28;20037;-77
2022/07/12 00:28:32;;;;;;;2.22;1.40;;;15.20;99.90;;;;;;5012282;28;20470;-77
2022/07/12 00:30:58;;;;;;;2.88;1.58;;;15.10;99.90;;;;;;5012168;28;20447;-76
2022/07/12 00:33:24;;;;;;;1.50;1.40;;;15.10;99.90;;;;;;5012356;28;20049;-77
2022/07/12 00:35:50;;;;;;;1.30;1.20;;;15.10;99.90;;;;;;5012042;28;20057;-76
2022/07/12 00:38:16;;;;;;;1.67;1.30;;;15.10;99.90;;;;;;5012457;28;20153;-77
2022/07/12 00:40:41;;;;;;;2.22;1.50;;;15.10;99.90;;;;;;5012364;28;20018;-77
2022/07/12 00:43:07;;;;;;;2.53;1.33;;;15.10;99.90;;;;;;5011385;28;20698;-76
2022/07/12 00:45:33;;;;;;;3.20;1.55;;;15.00;99.90;;;;;;5011788;28;20022;-77
2022/07/12 00:47:59;;;;;;;1.95;1.52;;;15.00;99.90;;;;;;5012198;28;20041;-77
2022/07/12 00:50:25;;;;;;;3.78;1.45;;;15.00;99.90;;;;;;5012157;28;20054;-76
2022/07/12 00:52:54;;;;;;;2.42;1.42;;;14.90;99.90;;;;;;5012025;28;20095;-77
2022/07/12 00:55:21;;;;;;;1.92;1.48;;;14.90;99.90;;;;;;5011875;28;20024;-76
2022/07/12 00:57:48;;;;;;;1.70;1.60;;;14.90;99.90;;;;;;5012062;28;20105;-77
2022/07/12 01:00:23;;;;;;;2.30;1.20;;;14.80;99.90;;;;;;5011602;28;20021;-77
2022/07/12 01:02:50;;;;;;;1.55;1.45;;;14.80;99.90;;;;;;5011941;28;20097;-77
2022/07/12 01:05:15;;;;;;;1.40;1.30;;;14.70;99.90;;;;;;5011878;28;20100;-77
2022/07/12 01:07:42;;;;;;;1.67;1.50;;;14.80;99.90;;;;;;5011764;28;20562;-77
2022/07/12 01:10:08;;;;;;;2.13;1.70;;;14.70;99.90;;;;;;5011438;28;20015;-77
2022/07/12 01:12:34;;;;;;;2.95;1.45;;;14.70;99.90;;;;;;5011932;28;20034;-77
2022/07/12 01:15:01;;;;;;;2.97;1.65;;;14.70;99.90;;;;;;5074048;23;20037;-80
2022/07/12 01:17:27;;;;;;;1.85;1.63;;;14.70;99.90;;;;;;5071861;28;20036;-80
2022/07/12 01:19:55;;;;;;;3.15;1.90;;;14.70;99.90;;;;;;5071752;28;20028;-79
2022/07/12 01:22:35;;;;;;;1.60;1.50;;;14.60;99.90;;;;;;5071341;28;20021;-79
2022/07/12 01:25:02;;;;;;;1.40;1.30;;;14.60;99.90;;;;;;5088153;28;20031;-79
2022/07/12 01:27:28;;;;;;;2.97;1.30;;;14.60;99.90;;;;;;5091686;28;20492;-80
2022/07/12 01:29:55;;;;;;;1.52;1.13;;;14.60;99.90;;;;;;5091864;28;20027;-79
2022/07/12 01:32:24;;;;;;;1.50;1.40;;;14.60;99.90;;;;;;5090588;28;20116;-79
2022/07/12 01:35:00;;;;;;;1.40;1.30;;;14.60;99.90;;;;;;5091760;28;20020;-79
2022/07/12 01:37:34;;;;;;;1.38;1.27;;;14.70;99.90;;;;;;5091864;28;20498;-79
2022/07/12 01:40:00;;;;;;;1.73;1.48;;;14.60;99.90;;;;;;5084556;28;20497;-79
2022/07/12 01:42:28;;;;;;;1.58;1.10;;;14.70;99.90;;;;;;5091609;28;20020;-79
2022/07/12 01:44:54;;;;;;;1.80;1.35;;;14.70;99.90;;;;;;5097043;28;20099;-80
2022/07/12 01:47:22;;;;;;;1.48;1.38;;;14.70;99.90;;;;;;5090439;28;20457;-79
2022/07/12 01:49:47;;;;;;;1.25;1.15;;;14.70;99.90;;;;;;5091230;28;20020;-79
2022/07/12 01:52:14;;;;;;;3.88;1.40;;;14.60;99.90;;;;;;5090056;28;20107;-79
2022/07/12 01:54:42;;;;;;;1.88;1.55;;;14.60;99.90;;;;;;5090934;28;20523;-79
2022/07/12 01:57:07;;;;;;;1.25;1.15;;;14.60;99.90;;;;;;5091421;28;20023;-79
2022/07/12 01:59:34;;;;;;;2.72;1.70;;;14.50;99.90;;;;;;5091150;28;20028;-79
2022/07/12 02:02:00;;;;;;;1.65;1.35;;;14.50;99.90;;;;;;5091200;28;20016;-79
2022/07/12 02:04:26;;;;;;;1.38;1.27;;;14.50;99.90;;;;;;5090987;28;20495;-79
2022/07/12 02:06:52;;;;;;;2.03;1.60;;;14.50;99.90;;;;;;5089694;28;20032;-79
2022/07/12 02:09:18;;;;;;;1.35;1.25;;;14.40;99.90;;;;;;5090354;28;20020;-79
2022/07/12 02:11:47;;;;;;;2.25;1.50;;;14.30;99.90;;;;;;5090765;28;20020;-79
2022/07/12 02:14:14;;;;;;;1.70;1.25;;;14.30;99.90;;;;;;5079245;23;20071;-76
2022/07/12 02:16:41;;;;;;;1.58;1.45;;;14.30;99.90;;;;;;5030361;28;20025;-77
2022/07/12 02:19:07;;;;;;;1.42;1.33;;;14.20;99.90;;;;;;5030810;28;20370;-77
2022/07/12 02:21:33;;;;;;;1.50;1.40;;;14.20;99.90;;;;;;5030300;28;20025;-77
2022/07/12 02:24:00;;;;;;;1.40;1.30;;;14.20;99.90;;;;;;5022819;28;20030;-77
2022/07/12 02:26:26;;;;;;;1.33;1.30;;;14.20;99.90;;;;;;5010513;28;20117;-77
2022/07/12 02:28:52;;;;;;;1.67;1.40;;;14.10;99.90;;;;;;5010663;28;20026;-77
2022/07/12 02:31:17;;;;;;;2.75;1.70;;;14.10;99.90;;;;;;5010299;28;20025;-77
2022/07/12 02:33:43;;;;;;;1.65;1.55;;;14.10;99.90;;;;;;5010413;28;20038;-76
2022/07/12 02:36:09;;;;;;;1.50;1.40;;;14.10;99.90;;;;;;5010729;28;20056;-76
2022/07/12 02:38:35;;;;;;;1.67;1.27;;;14.10;99.90;;;;;;5010718;28;20386;-76
2022/07/12 02:41:01;;;;;;;1.55;1.42;;;14.10;99.90;;;;;;5010454;28;20144;-76
2022/07/12 02:43:29;;;;;;;2.45;1.63;;;14.10;99.90;;;;;;5009095;28;20053;-76
2022/07/12 02:46:03;;;;;;;2.00;1.70;;;14.10;99.90;;;;;;5009791;28;20058;-76
2022/07/12 02:48:29;;;;;;;2.35;1.30;;;14.20;99.90;;;;;;5010491;28;20037;-76
2022/07/12 02:50:55;;;;;;;2.22;1.40;;;14.20;99.90;;;;;;5009902;28;20094;-76
2022/07/12 02:53:22;;;;;;;1.92;1.50;;;14.20;99.90;;;;;;5009826;28;20104;-76
2022/07/12 02:55:47;;;;;;;1.92;1.50;;;14.20;99.90;;;;;;5010007;28;20029;-76
2022/07/12 02:58:13;;;;;;;1.65;1.38;;;14.30;99.90;;;;;;5010371;28;20022;-76
2022/07/12 03:00:41;;;;;;;1.63;1.52;;;14.30;99.90;;;;;;5013844;28;20677;-77
2022/07/12 03:03:07;;;;;;;2.38;1.52;;;14.30;99.90;;;;;;5014268;28;20073;-76
2022/07/12 03:05:36;;;;;;;2.22;1.58;;;14.30;99.90;;;;;;5013910;28;20028;-76
2022/07/12 03:08:06;;;;;;;1.60;1.30;;;14.30;99.90;;;;;;5013916;28;20038;-76
2022/07/12 03:10:33;;;;;;;1.73;1.38;;;14.30;99.90;;;;;;5013607;28;20595;-76
2022/07/12 03:12:58;;;;;;;2.08;1.27;;;14.30;99.90;;;;;;5013823;28;20088;-76
2022/07/12 03:15:24;;;;;;;3.30;1.75;;;14.30;99.90;;;;;;5012758;28;20042;-76
2022/07/12 03:17:50;;;;;;;4.05;2.03;;;14.20;99.90;;;;;;5013772;28;20022;-76
2022/07/12 03:20:16;;;;;;;1.77;1.60;;;14.20;99.90;;;;;;5012223;28;20018;-76
2022/07/12 03:22:43;;;;;;;4.28;1.55;;;14.20;99.90;;;;;;5013613;28;20022;-76
2022/07/12 03:25:09;;;;;;;1.60;1.42;;;14.20;99.90;;;;;;5013264;28;20105;-76
2022/07/12 03:27:35;;;;;;;1.58;1.48;;;14.20;99.90;;;;;;5013832;28;20038;-76
2022/07/12 03:30:01;;;;;;;1.40;1.30;;;14.20;99.90;;;;;;5013550;28;20024;-76
2022/07/12 03:32:27;;;;;;;1.85;1.70;;;14.10;99.90;;;;;;5013362;28;20493;-76
2022/07/12 03:34:53;;;;;;;2.50;1.90;;;14.10;99.90;;;;;;5013440;28;20026;-76
2022/07/12 03:37:18;;;;;;;3.10;1.65;;;14.10;99.90;;;;;;5013363;28;20022;-76
2022/07/12 03:39:44;;;;;;;1.95;1.40;;;14.10;99.90;;;;;;5013418;28;20018;-76
2022/07/12 03:42:12;;;;;;;1.98;1.65;;;14.00;99.90;;;;;;5013712;28;20018;-76
2022/07/12 03:44:39;;;;;;;2.20;1.40;;;14.10;99.90;;;;;;5012763;28;20025;-76
2022/07/12 03:47:05;;;;;;;3.05;1.52;;;14.00;99.90;;;;;;5013141;28;20030;-76
2022/07/12 03:49:31;;;;;;;1.60;1.30;;;14.00;99.90;;;;;;5013067;28;20018;-76
2022/07/12 03:51:56;;;;;;;1.60;1.50;;;13.90;99.90;;;;;;5012870;28;20026;-76
2022/07/12 03:54:22;;;;;;;2.28;2.03;;;13.90;99.90;;;;;;5012470;28;20152;-76
2022/07/12 03:59:32;;;;;;;3.05;1.70;;;13.80;99.90;;;;;;5012959;28;20049;-76
2022/07/12 04:01:58;;;;;;;2.78;1.50;;;13.80;99.90;;;;;;5013361;28;20030;-76
2022/07/12 04:04:24;;;;;;;3.33;2.00;;;13.80;99.90;;;;;;5013422;28;20037;-76
2022/07/12 04:06:49;;;;;;;1.75;1.52;;;13.90;99.90;;;;;;5013177;28;20148;-76
2022/07/12 04:09:15;;;;;;;3.42;1.73;;;13.90;99.90;;;;;;5013187;28;20018;-76
2022/07/12 04:11:41;;;;;;;3.50;1.80;;;13.90;99.90;;;;;;5012398;28;20033;-76
2022/07/12 04:14:07;;;;;;;2.80;1.45;;;13.90;99.90;;;;;;5034681;23;20049;-78
2022/07/12 04:16:33;;;;;;;1.80;1.65;;;13.90;99.90;;;;;;5031765;28;20044;-78
2022/07/12 04:18:58;;;;;;;2.67;1.92;;;13.90;99.90;;;;;;5031984;28;20136;-78
2022/07/12 04:21:24;;;;;;;2.30;1.85;;;14.00;99.90;;;;;;5031681;28;20026;-78
2022/07/12 04:23:50;;;;;;;1.65;1.27;;;14.00;99.90;;;;;;5031996;28;20484;-78
2022/07/12 04:26:16;;;;;;;2.10;1.90;;;13.90;99.90;;;;;;5031445;28;20079;-78
2022/07/12 04:28:42;;;;;;;2.28;2.08;;;14.00;99.90;;;;;;5030748;28;20065;-78
2022/07/12 04:31:08;;;;;;;3.22;1.73;;;14.00;99.90;;;;;;5031413;28;20470;-78
2022/07/12 04:33:34;;;;;;;3.00;1.95;;;14.00;99.90;;;;;;5031644;28;20033;-78
2022/07/12 04:35:59;;;;;;;2.67;1.92;;;14.20;99.90;;;;;;5031121;28;20025;-78
2022/07/12 04:38:25;;;;;;;3.65;2.20;;;14.30;99.90;;;;;;5031747;28;20394;-78
2022/07/12 04:40:51;;;;;;;3.10;2.08;;;14.40;99.90;;;;;;5031625;28;20025;-78
2022/07/12 04:43:17;;;;;;;2.60;2.40;;;14.50;99.90;;;;;;5028205;28;20034;-78
2022/07/12 04:45:45;;;;;;;3.50;2.10;;;14.60;99.90;;;;;;5026103;28;20088;-78
2022/07/12 04:48:11;;;;;;;5.07;2.05;;;14.60;99.90;;;;;;5018519;28;20029;-78
2022/07/12 04:50:37;;;;;;;6.35;2.35;;;14.70;99.90;;;;;;5031515;28;20550;-78
2022/07/12 04:53:03;;;;;;;2.78;2.30;;;14.80;99.90;;;;;;5030811;28;20474;-77
2022/07/12 04:55:29;;;;;;;7.82;2.25;;;14.90;99.90;;;;;;5030987;28;20048;-78
2022/07/12 04:57:55;;;;;;;3.25;2.17;;;15.00;99.90;;;;;;5031058;28;20401;-78
2022/07/12 05:00:21;;;;;;;4.15;2.13;;;15.10;99.90;;;;;;5030606;28;20505;-78
2022/07/12 05:02:47;;;;;;;4.68;2.28;;;15.20;99.90;;;;;;5031062;28;20018;-78
2022/07/12 05:05:14;;;;;;;3.00;2.13;;;15.50;99.90;;;;;;5030639;28;20036;-78
2022/07/12 05:07:41;;;;;;;3.45;2.42;;;15.50;99.90;;;;;;5030435;28;20095;-78
2022/07/12 05:10:07;;;;;;;3.00;1.95;;;15.60;99.90;;;;;;5031111;28;20036;-78
2022/07/12 05:12:35;;;;;;;2.60;2.20;;;15.70;99.90;;;;;;5030626;28;20093;-78
2022/07/12 05:15:01;;;;;;;2.67;2.15;;;15.80;99.90;;;;;;5038069;23;20046;-76
2022/07/12 05:17:27;;;;;;;3.10;2.05;;;15.90;99.90;;;;;;5030608;28;20029;-76
2022/07/12 05:19:53;;;;;;;3.45;2.10;;;16.00;99.90;;;;;;5030587;28;20026;-77
2022/07/12 05:22:18;;;;;;;1.65;1.55;;;16.20;99.90;;;;;;5030206;28;20486;-76
2022/07/12 05:24:44;;;;;;;2.10;1.50;;;16.40;99.90;;;;;;5030182;28;20105;-76
2022/07/12 05:27:10;;;;;;;2.10;1.63;;;16.50;99.90;;;;;;5029918;28;20112;-76
2022/07/12 05:29:35;;;;;;;2.53;1.77;;;16.70;99.90;;;;;;5029477;28;20048;-76
2022/07/12 05:32:01;;;;;;;1.88;1.77;;;16.80;99.90;;;;;;5028985;28;20051;-76
2022/07/12 05:34:28;;;;;;;2.08;1.95;;;17.00;99.90;;;;;;5030247;28;20018;-76
2022/07/12 05:36:54;;;;;;;5.53;1.92;;;17.10;99.90;;;;;;5029982;28;20021;-76
2022/07/12 05:39:20;;;;;;;2.60;1.65;;;17.30;99.90;;;;;;5030205;28;20597;-76
2022/07/12 05:41:46;;;;;;;3.92;1.60;;;17.40;99.90;;;;;;5030082;28;20021;-76
2022/07/12 05:44:13;;;;;;;3.13;1.90;;;17.50;99.90;;;;;;5022605;28;20053;-76
2022/07/12 05:46:40;;;;;;;4.35;1.98;;;17.60;99.90;;;;;;5029958;28;20025;-76
2022/07/12 05:49:06;;;;;;;3.08;1.73;;;17.70;99.90;;;;;;5029596;28;20025;-76
2022/07/12 05:54:17;;;;;;;3.50;1.40;;;18.00;99.90;;;;;;5029759;28;20075;-76
2022/07/12 05:56:43;;;;;;;2.53;1.45;;;18.10;99.90;;;;;;5029717;28;20112;-76
2022/07/12 05:59:09;;;;;;;1.92;1.40;;;18.10;99.90;;;;;;5029855;28;20108;-76
2022/07/12 06:01:34;;;;;;;4.03;1.80;;;18.20;99.90;;;;;;5021534;28;20473;-76
2022/07/12 06:04:01;;;;;;;2.80;1.60;;;18.30;99.90;;;;;;5029616;28;20040;-76
2022/07/12 06:06:27;;;;;;;3.55;2.25;;;18.30;99.90;;;;;;5029946;28;20026;-76
2022/07/12 06:08:53;;;;;;;2.97;1.73;;;18.40;99.90;;;;;;5029578;28;20052;-76
2022/07/12 06:11:19;;;;;;;1.73;1.48;;;18.60;99.90;;;;;;5021293;28;20048;-76
2022/07/12 06:13:45;;;;;;;2.67;1.60;;;18.70;99.90;;;;;;5045561;23;20017;-79
2022/07/12 06:16:11;;;;;;;2.55;2.17;;;18.80;99.90;;;;;;5029668;28;20072;-79
2022/07/12 06:18:38;;;;;;;3.70;2.05;;;19.00;99.90;;;;;;5031004;28;20025;-79
2022/07/12 06:21:04;;;;;;;3.38;1.73;;;19.20;99.90;;;;;;5030435;28;20025;-79
2022/07/12 06:23:30;;;;;;;1.98;1.60;;;19.30;99.90;;;;;;5028600;28;20029;-79
2022/07/12 06:25:56;;;;;;;1.63;1.50;;;19.50;99.90;;;;;;5005400;28;20027;-79
2022/07/12 06:28:22;;;;;;;2.45;1.30;;;19.60;99.90;;;;;;5011173;28;20117;-79
2022/07/12 06:30:48;;;;;;;1.75;1.35;;;19.80;99.90;;;;;;5009026;28;20045;-79
2022/07/12 06:33:14;;;;;;;2.40;1.50;;;19.80;99.90;;;;;;5010304;28;20049;-79
2022/07/12 06:35:39;;;;;;;1.90;1.50;;;20.00;99.90;;;;;;5004042;28;20045;-79
2022/07/12 06:38:05;;;;;;;1.80;1.48;;;20.20;99.90;;;;;;5002234;28;20030;-80
2022/07/12 06:40:31;;;;;;;2.00;1.35;;;20.50;99.90;;;;;;5008026;28;20109;-79
2022/07/12 06:42:57;;;;;;;2.97;1.85;;;20.80;99.90;;;;;;5001991;28;20030;-79
2022/07/12 06:45:23;;;;;;;2.30;1.45;;;21.10;99.90;;;;;;5002017;28;20019;-79
2022/07/12 06:47:50;;;;;;;4.57;1.55;;;21.20;99.90;;;;;;5004667;28;20080;-80
2022/07/12 06:50:16;;;;;;;1.88;1.60;;;21.30;99.90;;;;;;5012086;28;20507;-80
2022/07/12 06:52:41;;;;;;;1.85;1.27;;;21.40;99.90;;;;;;5010397;28;20026;-80
2022/07/12 06:55:08;;;;;;;1.80;1.70;;;21.60;99.90;;;;;;5009999;28;20018;-80
2022/07/12 06:57:34;;;;;;;2.03;1.42;;;21.60;99.90;;;;;;5007840;28;20069;-79
2022/07/12 07:00:00;;;;;;;2.40;1.35;;;21.70;99.90;;;;;;5006255;28;20033;-80
2022/07/12 07:02:26;;;;;;;3.80;1.85;;;21.70;99.90;;;;;;5008474;28;20022;-79
2022/07/12 07:04:52;;;;;;;1.88;1.60;;;21.70;99.90;;;;;;5003818;28;20552;-79
2022/07/12 07:07:18;;;;;;;2.83;1.77;;;21.70;99.90;;;;;;5005316;28;20567;-79
2022/07/12 07:09:44;;;;;;;2.10;1.35;;;21.70;99.90;;;;;;5000101;28;20026;-78
2022/07/12 07:12:09;;;;;;;1.75;1.52;;;21.80;99.90;;;;;;5001732;28;20508;-77
2022/07/12 07:14:35;;;;;;;2.95;1.80;;;21.70;99.90;;;;;;5021360;22;20072;-77
2022/07/12 07:17:01;;;;;;;3.42;1.67;;;21.70;99.90;;;;;;5010319;28;20501;-77
2022/07/12 07:19:27;;;;;;;2.35;1.60;;;21.80;99.90;;;;;;5014941;28;20058;-76
2022/07/12 07:21:54;;;;;;;1.92;1.73;;;21.80;99.90;;;;;;5009671;28;20022;-75
2022/07/12 07:24:20;;;;;;;2.30;1.77;;;21.90;99.90;;;;;;5010070;28;20025;-83
2022/07/12 07:26:47;;;;;;;1.60;1.50;;;21.90;99.90;;;;;;5010083;28;20037;-76
2022/07/12 07:31:57;;;;;;;1.75;1.50;;;22.20;99.90;;;;;;5004123;28;20538;-76
2022/07/12 07:34:23;;;;;;;1.23;1.13;;;22.50;99.90;;;;;;5009495;28;20120;-77
2022/07/12 07:36:50;;;;;;;6.82;1.20;;;22.70;99.90;;;;;;5009752;28;20060;-77
2022/07/12 07:39:16;;;;;;;2.42;0.98;;;22.90;99.90;;;;;;5008499;28;20038;-76
2022/07/12 07:41:41;;;;;;;2.70;1.30;;;23.10;99.90;;;;;;5008449;28;20081;-76
2022/07/12 07:44:07;;;;;;;3.35;1.10;;;23.30;99.90;;;;;;5008822;28;20618;-76
2022/07/12 07:46:33;;;;;;;2.13;1.23;;;23.40;99.90;;;;;;5010668;28;20038;-77
2022/07/12 07:48:59;;;;;;;2.10;1.15;;;23.60;99.90;;;;;;5013970;28;20018;-77
2022/07/12 07:51:25;;;;;;;4.50;1.40;;;23.80;99.90;;;;;;5012772;28;20120;-76
2022/07/12 07:53:50;;;;;;;1.50;1.17;;;23.90;99.90;;;;;;5013372;28;20018;-76
2022/07/12 07:56:16;;;;;;;3.05;1.30;;;24.10;99.90;;;;;;5013730;28;20091;-76
2022/07/12 07:58:42;;;;;;;1.25;0.90;;;24.40;99.90;;;;;;5013308;28;20073;-76
2022/07/12 08:01:08;;;;;;;0.80;0.80;;;24.60;99.90;;;;;;5013539;28;20430;-76
2022/07/12 08:03:33;;;;;;;1.77;0.77;;;24.80;99.90;;;;;;5013678;28;20030;-76
2022/07/12 08:06:00;;;;;;;4.13;0.80;;;25.00;99.90;;;;;;5013503;28;20026;-76
2022/07/12 08:08:27;;;;;;;5.30;1.15;;;25.00;98.60;;;;;;5013740;28;20509;-76
2022/07/12 08:10:53;;;;;;;0.60;0.60;;;25.10;94.40;;;;;;5013376;28;20014;-77
2022/07/12 08:15:59;;;;;;;0.70;0.70;;;25.20;94.90;;;;;;4992730;28;20101;-79
2022/07/12 08:18:25;;;;;;;0.50;0.50;;;25.20;88.70;;;;;;4992549;28;20027;-79
2022/07/12 08:20:50;;;;;;;0.60;0.60;;;25.30;91.50;;;;;;4993522;28;20022;-79
2022/07/12 08:23:16;;;;;;;1.55;1.20;;;25.50;87.60;;;;;;4993980;28;20479;-79
2022/07/12 08:25:42;;;;;;;2.38;0.88;;;25.50;87.50;;;;;;4992967;28;20034;-79
2022/07/12 08:28:08;;;;;;;0.73;0.60;;;25.50;84.10;;;;;;4991392;28;20034;-79
2022/07/12 08:30:34;;;;;;;1.77;0.70;;;25.70;84.30;;;;;;4992135;28;20023;-79
2022/07/12 08:32:59;;;;;;;2.28;0.73;;;25.90;82.10;;;;;;4992841;28;20050;-78
2022/07/12 08:35:25;;;;;;;1.85;0.70;;;26.00;79.00;;;;;;4992220;28;20045;-79
2022/07/12 08:37:51;;;;;;;1.40;0.85;;;26.30;77.80;;;;;;4992353;28;20442;-79
2022/07/12 08:40:17;;;;;;;3.03;0.80;;;26.70;78.50;;;;;;4992567;28;20057;-79
2022/07/12 08:42:43;;;;;;;2.05;0.70;;;27.20;73.30;;;;;;4992190;28;20034;-79
2022/07/12 08:45:09;;;;;;;2.10;0.73;;;27.90;66.60;;;;;;4990675;28;20064;-79
2022/07/12 08:47:37;;;;;;;2.85;0.80;;;28.20;64.60;;;;;;4992094;28;20030;-80
2022/07/12 08:50:17;;;;;;;0.55;0.50;;;28.40;66.30;;;;;;4978549;28;20113;-80
2022/07/12 08:52:44;;;;;;;1.38;0.38;;;28.70;64.10;;;;;;4992124;28;20028;-78
2022/07/12 08:55:20;;;;;;;1.05;0.60;;;28.60;62.30;;;;;;4991924;28;20475;-79
2022/07/12 08:57:47;;;;;;;0.73;0.50;;;28.70;63.80;;;;;;4991182;28;20052;-79
2022/07/12 09:00:13;;;;;;;0.82;0.60;;;29.00;61.30;;;;;;4991588;28;20499;-79
2022/07/12 09:02:50;;;;;;;1.30;1.00;;;29.40;62.10;;;;;;4991864;28;20022;-79
2022/07/12 09:05:20;;;;;;;1.25;0.73;;;29.90;61.20;;;;;;4991457;28;20019;-80
2022/07/12 09:07:48;;;;;;;2.03;0.60;;;29.50;59.90;;;;;;4991476;28;20034;-79
2022/07/12 09:10:14;;;;;;;2.78;0.70;;;29.30;60.00;;;;;;4991699;28;20029;-80
2022/07/12 09:12:41;;;;;;;1.63;0.60;;;29.40;60.60;;;;;;4990327;28;20032;-80
2022/07/12 09:15:26;;;;;;;0.73;0.73;;;29.50;59.40;;;;;;5029634;23;20045;-75
2022/07/12 09:18:01;;;;;;;0.70;0.63;;;29.60;58.40;;;;;;5011075;28;20022;-76
2022/07/12 09:20:31;;;;;;;1.13;0.73;;;29.90;59.70;;;;;;5011957;28;20495;-76
2022/07/12 09:23:00;;;;;;;1.10;0.60;;;29.60;59.70;;;;;;5012108;28;20019;-76
2022/07/12 09:25:26;;;;;;;2.00;0.65;;;29.60;58.20;;;;;;5011186;28;20026;-76
2022/07/12 09:27:56;;;;;;;0.80;0.75;;;30.00;57.80;;;;;;5010784;28;20022;-75
2022/07/12 09:30:27;;;;;;;0.93;0.80;;;30.30;56.20;;;;;;5010543;28;20069;-76
2022/07/12 09:36:06;;;;;;;3.00;0.80;;;30.10;57.60;;;;;;5001386;28;20049;-76
2022/07/12 09:38:34;;;;;;;0.93;0.73;;;30.20;57.20;;;;;;5006382;28;20551;-76
2022/07/12 09:41:00;;;;;;;1.33;0.60;;;30.70;58.10;;;;;;5010929;28;20097;-75
2022/07/12 09:43:27;;;;;;;1.65;0.50;;;31.40;57.00;;;;;;5007520;28;20026;-75
2022/07/12 09:45:53;;;;;;;1.40;0.77;;;32.00;55.40;;;;;;5010250;28;20029;-76
2022/07/12 09:48:22;;;;;;;1.02;0.65;;;32.10;55.00;;;;;;5010596;28;20018;-75
2022/07/12 09:50:50;;;;;;;2.78;0.70;;;32.30;53.50;;;;;;5010236;28;20018;-76
2022/07/12 09:53:31;;;;;;;1.85;0.70;;;32.20;53.90;;;;;;5010168;28;20025;-75
2022/07/12 09:55:58;;;;;;;0.82;0.52;;;32.20;54.40;;;;;;5010115;28;20108;-77
2022/07/12 09:58:27;;;;;;;0.60;0.60;;;32.00;50.20;;;;;;5010262;28;20581;-76
2022/07/12 10:00:54;;;;;;;0.60;0.60;;;32.30;55.90;;;;;;5008823;28;20022;-75
2022/07/12 10:03:24;;;;;;;1.10;0.70;;;32.40;52.50;;;;;;5010163;28;20636;-76
2022/07/12 10:05:53;;;;;;;0.95;0.63;;;32.20;48.60;;;;;;5009831;28;20066;-76
2022/07/12 10:08:21;;;;;;;0.60;0.60;;;31.20;51.20;;;;;;5009823;28;20533;-75
2022/07/12 10:10:49;;;;;;;1.13;0.60;;;30.70;53.70;;;;;;5010081;28;20022;-76
2022/07/12 10:13:17;;;;;;;3.42;0.60;;;30.60;54.30;;;;;;5010336;28;20049;-76
2022/07/12 10:15:45;;;;;;;1.38;0.70;;;30.50;54.00;;;;;;5009987;28;20117;-76
2022/07/12 10:18:16;;;;;;;0.65;0.65;;;30.80;56.20;;;;;;5010478;28;20034;-75
2022/07/12 10:20:43;;;;;;;0.52;0.50;;;31.20;54.90;;;;;;5009895;28;20028;-76
2022/07/12 10:23:34;;;;;;;1.98;1.10;;;31.30;53.90;;;;;;5008784;28;20080;-76
2022/07/12 10:26:01;;;;;;;1.42;0.68;;;31.60;51.50;;;;;;5010060;28;20038;-76
2022/07/12 10:29:05;;;;;;;1.20;0.90;;;31.50;53.90;;;;;;5009658;28;20057;-76
2022/07/12 10:31:36;;;;;;;0.65;0.60;;;30.80;52.10;;;;;;4987873;28;20034;-75
2022/07/12 10:34:22;;;;;;;0.70;0.70;;;30.50;54.10;;;;;;5009597;28;20047;-75
2022/07/12 10:37:11;;;;;;;1.73;0.82;;;30.30;54.80;;;;;;5009360;28;20103;-76
2022/07/12 10:39:37;;;;;;;2.33;0.63;;;30.70;54.70;;;;;;4999612;28;20049;-76
2022/07/12 10:42:12;;;;;;;1.95;0.80;;;31.30;53.00;;;;;;5009894;28;20021;-76
2022/07/12 10:44:41;;;;;;;0.75;0.73;;;32.50;52.10;;;;;;4996455;28;20419;-76
2022/07/12 10:47:08;;;;;;;0.70;0.60;;;32.90;49.80;;;;;;5009715;28;20029;-76
2022/07/12 10:49:35;;;;;;;2.30;0.70;;;33.10;51.80;;;;;;5009583;28;20563;-76
2022/07/12 10:52:10;;;;;;;1.05;0.70;;;33.20;51.00;;;;;;5009777;28;20474;-75
2022/07/12 10:54:37;;;;;;;0.82;0.82;;;34.00;47.60;;;;;;4997187;28;20069;-76
2022/07/12 10:57:03;;;;;;;0.82;0.80;;;34.80;47.30;;;;;;5009406;28;20505;-77
2022/07/12 10:59:33;;;;;;;2.42;0.77;;;36.00;45.00;;;;;;5009323;28;20022;-76
2022/07/12 11:01:59;;;;;;;1.05;0.60;;;37.10;45.00;;;;;;5009849;28;20546;-76
2022/07/12 11:04:27;;;;;;;1.40;0.65;;;37.30;42.10;;;;;;5009491;28;20018;-76
2022/07/12 11:06:58;;;;;;;1.23;0.88;;;38.20;40.70;;;;;;5009482;28;20540;-76
2022/07/12 11:09:24;;;;;;;;;;;38.40;40.10;;;;;;5009843;28;20018;-76
2022/07/12 11:11:51;;;;;;;2.53;0.73;;;38.10;39.60;;;;;;5009741;28;19964;-76
2022/07/12 11:14:21;;;;;;;2.42;0.80;;;36.70;40.70;;;;;;5009522;28;20446;-75
2022/07/12 11:16:48;;;;;;;0.67;0.50;;;35.50;41.30;;;;;;5009268;28;20033;-76
2022/07/12 11:19:15;;;;;;;2.67;0.88;;;34.30;42.90;;;;;;5010028;28;20071;-76
2022/07/12 11:21:45;;;;;;;2.95;0.80;;;33.20;44.90;;;;;;5013204;28;20029;-75
2022/07/12 11:24:22;;;;;;;0.53;0.53;;;32.40;47.10;;;;;;5012919;28;20037;-75
2022/07/12 11:26:49;;;;;;;1.35;0.60;;;33.70;46.40;;;;;;5012764;28;20018;-76
2022/07/12 11:29:15;;;;;;;3.25;1.05;;;35.70;44.30;;;;;;5011873;28;20428;-76
2022/07/12 11:31:41;;;;;;;0.57;0.50;;;36.70;41.90;;;;;;5013117;28;20033;-76
2022/07/12 11:34:07;;;;;;;1.27;0.60;;;37.60;41.40;;;;;;5012804;28;20026;-76
2022/07/12 11:36:33;;;;;;;1.63;0.80;;;38.20;38.50;;;;;;5013098;28;20029;-76
2022/07/12 11:39:00;;;;;;;0.70;0.63;;;37.40;38.60;;;;;;5012800;28;20037;-76
2022/07/12 11:41:26;;;;;;;1.98;0.80;;;37.90;41.70;;;;;;5012735;28;20026;-76
2022/07/12 11:43:51;;;;;;;0.80;0.60;;;39.20;38.90;;;;;;5011403;28;20033;-76
2022/07/12 11:46:17;;;;;;;0.75;0.52;;;38.70;36.70;;;;;;5012458;28;20010;-76
2022/07/12 11:48:43;;;;;;;1.17;0.80;;;40.00;38.20;;;;;;5012393;28;20116;-76
2022/07/12 11:51:13;;;;;;;1.75;0.77;;;40.50;36.40;;;;;;5011402;28;20018;-76
2022/07/12 11:53:40;;;;;;;1.85;0.70;;;40.40;36.30;;;;;;5000099;28;20368;-75
2022/07/12 11:56:07;;;;;;;1.15;0.60;;;41.40;35.40;;;;;;5012726;28;20024;-76
2022/07/12 11:58:37;;;;;;;2.15;0.85;;;41.40;33.00;;;;;;5012186;28;20033;-77
2022/07/12 12:01:04;;;;;;;4.20;0.80;;;40.30;33.80;;;;;;5012533;28;20025;-76
2022/07/12 12:03:32;;;;;;;2.40;0.60;;;40.20;37.40;;;;;;5012203;28;20088;-76
2022/07/12 12:05:58;;;;;;;2.72;0.90;;;40.10;35.40;;;;;;5012574;28;20022;-76
2022/07/12 12:08:25;;;;;;;1.02;0.60;;;40.60;34.40;;;;;;5011374;28;20025;-75
2022/07/12 12:10:59;;;;;;;1.23;0.50;;;40.90;34.50;;;;;;5012328;28;20494;-76
2022/07/12 12:13:26;;;;;;;1.65;0.80;;;41.00;34.70;;;;;;5011616;28;20474;-76
2022/07/12 12:15:57;;;;;;;0.95;0.70;;;41.30;36.60;;;;;;5047383;22;20048;-78
2022/07/12 12:18:34;;;;;;;;;;;42.30;35.30;;;;;;5032383;28;20757;-78
2022/07/12 12:21:06;;;;;;;3.00;0.70;;;42.60;32.90;;;;;;5027238;28;19905;-78
2022/07/12 12:23:32;;;;;;;1.80;0.60;;;42.50;34.60;;;;;;5033114;28;20033;-78
2022/07/12 12:26:15;;;;;;;1.25;0.82;;;42.00;33.30;;;;;;5031581;28;20156;-78
2022/07/12 12:28:51;;;;;;;0.70;0.60;;;42.00;32.40;;;;;;5031900;28;20056;-77
2022/07/12 12:31:22;;;;;;;0.65;0.60;;;40.90;33.60;;;;;;5030956;28;20014;-77
2022/07/12 12:33:49;;;;;;;1.13;0.70;;;40.60;34.50;;;;;;5031866;28;20033;-78
2022/07/12 12:36:24;;;;;;;1.27;0.77;;;40.40;33.60;;;;;;5031222;28;20018;-78
2022/07/12 12:38:58;;;;;;;1.30;0.63;;;40.20;34.60;;;;;;5031622;28;20021;-77
2022/07/12 12:41:26;;;;;;;3.60;0.77;;;38.90;35.90;;;;;;5031616;28;20482;-77
2022/07/12 12:44:01;;;;;;;3.60;0.65;;;37.80;38.20;;;;;;5027541;28;20030;-77
2022/07/12 12:46:55;;;;;;;1.33;0.80;;;36.20;38.50;;;;;;5025728;28;20018;-78
2022/07/12 12:49:50;;;;;;;1.15;0.95;;;34.90;40.70;;;;;;5022161;28;20060;-78
2022/07/12 12:52:17;;;;;;;2.80;0.80;;;33.70;44.20;;;;;;5025263;28;20033;-77
2022/07/12 12:54:44;;;;;;;1.98;0.80;;;32.90;45.10;;;;;;5031618;28;20025;-77
2022/07/12 12:57:11;;;;;;;1.60;0.90;;;32.50;46.00;;;;;;5031395;28;20113;-77
2022/07/12 12:59:37;;;;;;;2.05;0.95;;;32.10;48.40;;;;;;5030562;28;20026;-77
2022/07/12 13:02:04;;;;;;;1.08;0.70;;;32.30;46.20;;;;;;5031648;28;20022;-77
2022/07/12 13:04:31;;;;;;;0.85;0.82;;;33.00;46.60;;;;;;5029744;28;20017;-78